Terminal Aerodrome Forecast
Issued by NWS

Home | Current Version | Previous Version | Text Only | Print | Product List | Glossary On
Versions: 1 2 3 4 5 6 7 8 9 10 11 12 13 14 15 16 17 18 19 20 21 22 23 24 25 26 27 28 29 30 31 32 33 34 35 36 37 38 39 40 41 42 43 44 45 46 47 48 49 50
000
FTUS43 KDDC 311022 AAA
TAFGCK
TAF AMD
KGCK 311022Z 3110/0106 34003KT 5SM BR FEW022 BKN070
      TEMPO 3110/3114 3/4SM BR OVC010
     FM311400 01004KT 3SM BR BKN025
     FM311600 02004KT 6SM BR BKN040 PROB30 3122/3123 4SM -TSRA
      OVC025CB=

USA.gov is the U.S. government's official web portal to all federal, state and local government web resources and services.